Time;durP1;ratioP1;P1;durP2;ratioP2;P2;SDS_P1;SDS_P2;PMS_P1;PMS_P2;Temp;Humidity;BMP_temperature;BMP_pressure;BME280_temperature;BME280_humidity;BME280_pressure;Samples;Min_cycle;Max_cycle;Signal;HPM_P1;HPM_P2
2021/07/23 00:00:49;;;;;;;2.08;1.98;;;31.20;41.10;;;;;;5073408;28;20405;-52
2021/07/23 00:03:16;;;;;;;1.65;1.55;;;31.10;41.10;;;;;;5086428;28;20051;-48
2021/07/23 00:05:43;;;;;;;1.83;1.80;;;31.10;41.10;;;;;;5087390;28;20535;-53
2021/07/23 00:08:10;;;;;;;1.67;1.58;;;31.10;41.10;;;;;;5086060;28;20090;-52
2021/07/23 00:10:37;;;;;;;2.30;1.60;;;31.10;41.20;;;;;;5086170;28;20050;-49
2021/07/23 00:13:06;;;;;;;5.28;1.88;;;31.10;41.20;;;;;;5084552;28;20608;-51
2021/07/23 00:15:33;;;;;;;1.63;1.48;;;31.10;41.20;;;;;;5079414;28;20151;-52
2021/07/23 00:18:01;;;;;;;3.40;1.38;;;31.10;41.30;;;;;;5086901;28;20553;-50
2021/07/23 00:20:28;;;;;;;3.58;1.75;;;31.10;41.30;;;;;;5073857;28;20155;-51
2021/07/23 00:22:55;;;;;;;1.67;1.58;;;31.10;41.30;;;;;;5083966;28;20460;-48
2021/07/23 00:25:22;;;;;;;2.00;1.45;;;31.00;41.30;;;;;;5081846;28;20048;-52
2021/07/23 00:27:49;;;;;;;2.15;1.88;;;31.00;41.40;;;;;;5074848;28;20044;-51
2021/07/23 00:30:18;;;;;;;1.55;1.45;;;31.00;41.40;;;;;;5086555;28;20048;-49
2021/07/23 00:32:45;;;;;;;1.63;1.52;;;31.00;41.40;;;;;;5076337;28;20090;-48
2021/07/23 00:35:13;;;;;;;1.48;1.38;;;31.00;41.40;;;;;;5073127;28;20145;-50
2021/07/23 00:37:40;;;;;;;2.58;1.70;;;31.00;41.40;;;;;;5081984;28;20048;-49
2021/07/23 00:40:08;;;;;;;1.42;1.05;;;30.90;41.40;;;;;;5081846;28;20115;-48
2021/07/23 00:42:36;;;;;;;1.83;1.42;;;30.90;41.40;;;;;;5072309;28;20123;-50
2021/07/23 00:45:04;;;;;;;1.40;1.23;;;30.90;41.50;;;;;;5086839;28;20485;-50
2021/07/23 00:47:32;;;;;;;1.13;1.02;;;30.90;41.50;;;;;;5087549;28;20446;-51
2021/07/23 00:50:00;;;;;;;1.58;1.25;;;30.90;41.50;;;;;;5084572;28;20048;-50
2021/07/23 00:52:28;;;;;;;1.42;1.20;;;30.90;41.60;;;;;;5089402;28;20538;-48
2021/07/23 00:54:55;;;;;;;1.60;1.60;;;30.80;41.50;;;;;;5089808;28;20463;-50
2021/07/23 00:57:24;;;;;;;0.88;0.88;;;30.90;41.70;;;;;;5088787;28;26147;-48
2021/07/23 00:59:52;;;;;;;2.08;1.98;;;30.80;41.60;;;;;;5090963;28;20125;-50
2021/07/23 01:02:19;;;;;;;1.90;1.58;;;30.80;41.60;;;;;;5090395;28;20040;-49
2021/07/23 01:04:49;;;;;;;1.23;1.23;;;30.80;41.70;;;;;;5087791;28;20035;-51
2021/07/23 01:07:16;;;;;;;1.95;1.45;;;30.80;41.70;;;;;;5089384;28;20044;-50
2021/07/23 01:09:44;;;;;;;1.52;1.42;;;30.70;41.70;;;;;;5071393;28;20043;-49
2021/07/23 01:12:28;;;;;;;1.15;1.15;;;30.70;41.70;;;;;;5071281;28;20051;-52
2021/07/23 01:14:55;;;;;;;0.95;0.85;;;30.70;42.30;;;;;;5073220;28;20581;-49
2021/07/23 01:17:22;;;;;;;1.90;1.67;;;30.70;41.70;;;;;;5077711;28;20044;-48
2021/07/23 01:19:56;;;;;;;3.33;1.38;;;30.70;42.40;;;;;;5085967;28;20046;-49
2021/07/23 01:22:27;;;;;;;2.10;0.90;;;30.70;41.80;;;;;;5087626;28;20066;-48
2021/07/23 01:24:57;;;;;;;1.05;0.95;;;30.70;41.80;;;;;;5089749;28;20048;-48
2021/07/23 01:27:27;;;;;;;1.25;0.88;;;30.70;41.80;;;;;;5072527;28;20501;-51
2021/07/23 01:30:08;;;;;;;0.70;0.70;;;30.70;41.90;;;;;;5089103;28;20043;-48
2021/07/23 01:32:38;;;;;;;1.13;1.13;;;30.70;41.90;;;;;;5083518;28;20608;-52
2021/07/23 01:35:07;;;;;;;1.02;1.02;;;30.60;41.90;;;;;;5078641;28;20052;-45
2021/07/23 01:37:36;;;;;;;1.75;1.23;;;30.60;41.90;;;;;;5082464;28;20123;-47
2021/07/23 01:40:07;;;;;;;1.05;1.05;;;30.60;41.90;;;;;;5086206;28;20044;-51
2021/07/23 01:42:35;;;;;;;0.77;0.77;;;30.60;42.00;;;;;;5075095;28;20086;-50
2021/07/23 01:45:03;;;;;;;1.02;1.02;;;30.60;42.00;;;;;;5071256;28;20049;-51
2021/07/23 01:47:30;;;;;;;2.85;0.95;;;30.60;42.00;;;;;;5090312;28;20802;-49
2021/07/23 01:49:58;;;;;;;1.73;1.63;;;30.60;42.00;;;;;;5084499;28;20131;-46
2021/07/23 01:52:25;;;;;;;2.00;1.48;;;30.50;42.60;;;;;;5084558;28;20037;-50
2021/07/23 01:54:53;;;;;;;2.58;1.63;;;30.50;42.00;;;;;;5076145;28;20040;-51
2021/07/23 01:57:35;;;;;;;1.02;1.02;;;30.50;42.00;;;;;;5087670;28;20075;-57
2021/07/23 02:00:04;;;;;;;1.42;1.42;;;30.50;42.10;;;;;;5073341;28;20036;-49
2021/07/23 02:02:42;;;;;;;1.25;1.25;;;30.50;42.10;;;;;;5089847;28;20048;-52
2021/07/23 02:05:15;;;;;;;1.55;1.45;;;30.40;42.00;;;;;;5083971;28;20052;-48
2021/07/23 02:07:42;;;;;;;1.15;1.13;;;30.40;42.10;;;;;;5081389;28;20075;-52
2021/07/23 02:10:11;;;;;;;0.75;0.60;;;30.40;42.10;;;;;;5082026;28;20036;-48
2021/07/23 02:12:40;;;;;;;0.85;0.85;;;30.40;42.10;;;;;;5072815;28;20517;-46
2021/07/23 02:15:14;;;;;;;0.98;0.85;;;30.40;42.10;;;;;;5086974;28;20055;-50
2021/07/23 02:17:41;;;;;;;1.23;1.13;;;30.40;42.20;;;;;;5088316;28;20532;-49
2021/07/23 02:20:16;;;;;;;1.10;1.10;;;30.40;42.20;;;;;;5091868;28;20101;-50
2021/07/23 02:22:43;;;;;;;1.27;1.00;;;30.40;42.20;;;;;;5083411;28;20048;-47
2021/07/23 02:25:13;;;;;;;1.67;1.10;;;30.40;42.20;;;;;;5086612;28;20044;-46
2021/07/23 02:27:43;;;;;;;1.35;0.70;;;30.30;42.20;;;;;;5086664;28;20139;-50
2021/07/23 02:30:12;;;;;;;1.48;1.38;;;30.40;42.30;;;;;;5087041;28;20048;-49
2021/07/23 02:32:44;;;;;;;1.40;1.30;;;30.30;42.20;;;;;;5078740;28;20048;-48
2021/07/23 02:35:12;;;;;;;1.63;1.50;;;30.30;42.30;;;;;;5077391;28;20047;-49
2021/07/23 02:37:51;;;;;;;1.02;0.90;;;30.30;42.30;;;;;;5076187;28;20063;-47
2021/07/23 02:40:18;;;;;;;1.70;1.60;;;30.30;42.90;;;;;;5080077;28;20480;-46
2021/07/23 02:42:56;;;;;;;1.35;1.35;;;30.30;42.30;;;;;;5083169;28;20052;-51
2021/07/23 02:45:25;;;;;;;2.05;1.35;;;30.30;42.40;;;;;;5082603;28;20051;-53
2021/07/23 02:47:52;;;;;;;1.20;1.20;;;30.30;42.40;;;;;;5087006;28;20047;-48
2021/07/23 02:50:22;;;;;;;1.25;1.25;;;30.30;42.40;;;;;;5085369;28;20040;-51
2021/07/23 02:52:51;;;;;;;1.10;0.93;;;30.30;42.40;;;;;;5079099;28;20051;-47
2021/07/23 02:55:19;;;;;;;1.55;1.50;;;30.30;42.40;;;;;;5076098;28;20561;-50
2021/07/23 02:57:48;;;;;;;0.82;0.82;;;30.20;42.40;;;;;;5074149;28;20467;-50
2021/07/23 03:00:19;;;;;;;1.60;1.50;;;30.20;42.40;;;;;;5071595;28;20043;-48
2021/07/23 03:02:49;;;;;;;1.35;1.25;;;30.20;42.40;;;;;;5083398;28;20109;-50
2021/07/23 03:05:16;;;;;;;4.20;1.35;;;30.20;42.50;;;;;;5082448;28;20054;-48
2021/07/23 03:07:45;;;;;;;1.88;1.77;;;30.20;42.50;;;;;;5085900;28;20085;-48
2021/07/23 03:10:12;;;;;;;0.82;0.82;;;30.20;42.50;;;;;;5084953;28;20809;-49
2021/07/23 03:12:42;;;;;;;1.00;1.00;;;30.20;42.50;;;;;;5085433;28;20039;-47
2021/07/23 03:15:12;;;;;;;1.42;1.30;;;30.10;42.40;;;;;;5086603;28;20134;-47
2021/07/23 03:17:42;;;;;;;3.55;1.20;;;30.10;42.50;;;;;;5086021;28;20585;-45
2021/07/23 03:20:11;;;;;;;1.10;1.10;;;30.10;42.50;;;;;;5086940;28;20066;-46
2021/07/23 03:22:41;;;;;;;1.13;0.70;;;30.10;42.50;;;;;;5078595;28;20443;-46
2021/07/23 03:25:22;;;;;;;1.30;1.17;;;30.10;42.60;;;;;;5074263;28;20044;-47
2021/07/23 03:28:07;;;;;;;1.20;1.20;;;30.10;42.60;;;;;;5076035;28;20515;-50
2021/07/23 03:30:45;;;;;;;1.05;1.05;;;30.10;42.60;;;;;;5085687;28;20154;-49
2021/07/23 03:33:14;;;;;;;0.73;0.73;;;30.10;42.60;;;;;;5085958;28;20105;-52
2021/07/23 03:35:41;;;;;;;0.95;0.85;;;30.10;42.60;;;;;;5072696;28;20517;-49
2021/07/23 03:38:10;;;;;;;1.45;1.45;;;30.10;42.70;;;;;;5086344;28;20048;-51
2021/07/23 03:40:38;;;;;;;2.30;0.80;;;30.00;42.60;;;;;;5086543;28;20126;-47
2021/07/23 03:43:14;;;;;;;1.60;1.50;;;30.00;42.60;;;;;;5083217;28;20048;-52
2021/07/23 03:45:51;;;;;;;1.25;1.15;;;30.00;42.60;;;;;;5073409;28;20040;-48
2021/07/23 03:48:19;;;;;;;1.23;1.23;;;30.00;42.70;;;;;;5085336;28;20040;-48
2021/07/23 03:50:48;;;;;;;1.65;1.55;;;30.00;42.70;;;;;;5083621;28;20094;-51
2021/07/23 03:53:18;;;;;;;1.27;1.23;;;29.90;42.60;;;;;;5073636;28;20051;-51
2021/07/23 03:55:46;;;;;;;1.13;1.00;;;29.90;42.70;;;;;;5082037;28;20058;-49
2021/07/23 03:58:27;;;;;;;1.10;1.00;;;30.00;42.70;;;;;;5067092;28;20120;-50
2021/07/23 04:00:55;;;;;;;1.38;1.38;;;29.90;42.70;;;;;;5085779;28;20048;-49
2021/07/23 04:03:23;;;;;;;2.08;1.98;;;29.90;42.70;;;;;;5071005;28;20127;-51
2021/07/23 04:05:53;;;;;;;1.33;1.15;;;29.90;42.70;;;;;;5085111;28;20097;-52
2021/07/23 04:08:21;;;;;;;1.75;1.65;;;29.90;42.80;;;;;;5070978;28;20051;-52
2021/07/23 04:10:48;;;;;;;1.40;1.33;;;29.90;42.80;;;;;;5092887;28;20119;-48
2021/07/23 04:13:15;;;;;;;1.05;1.05;;;29.90;42.80;;;;;;5082786;28;20040;-48
2021/07/23 04:15:44;;;;;;;1.52;1.42;;;29.90;42.80;;;;;;5073839;28;20036;-52
2021/07/23 04:18:16;;;;;;;1.73;1.63;;;29.90;42.80;;;;;;5084878;28;20064;-48
2021/07/23 04:21:05;;;;;;;1.73;1.70;;;29.90;42.90;;;;;;5082718;28;20052;-51
2021/07/23 04:23:34;;;;;;;1.88;1.77;;;29.90;42.90;;;;;;5084511;28;20048;-49
2021/07/23 04:26:01;;;;;;;1.52;1.40;;;29.80;42.80;;;;;;5084649;28;20134;-51
2021/07/23 04:28:33;;;;;;;1.67;1.30;;;29.80;42.80;;;;;;5094720;28;20612;-52
2021/07/23 04:31:00;;;;;;;1.33;1.33;;;29.80;42.90;;;;;;5089575;28;20036;-51
2021/07/23 04:33:45;;;;;;;1.83;1.73;;;29.80;42.90;;;;;;5078061;28;20731;-50
2021/07/23 04:36:34;;;;;;;1.55;1.45;;;29.80;42.90;;;;;;5075800;28;20051;-48
2021/07/23 04:39:11;;;;;;;1.40;0.95;;;29.80;43.00;;;;;;5088579;28;20581;-50
2021/07/23 04:41:40;;;;;;;2.85;1.92;;;29.80;43.00;;;;;;5076397;28;20156;-49
2021/07/23 04:44:08;;;;;;;1.40;1.40;;;29.80;43.00;;;;;;5078204;28;20488;-50
2021/07/23 04:46:38;;;;;;;1.30;1.30;;;29.80;43.00;;;;;;5078482;28;20064;-53
2021/07/23 04:49:07;;;;;;;3.47;1.00;;;29.80;43.00;;;;;;5079364;28;20055;-51
2021/07/23 04:51:38;;;;;;;1.27;1.27;;;29.80;43.00;;;;;;5087914;28;20037;-47
2021/07/23 04:54:23;;;;;;;2.17;1.85;;;29.80;43.10;;;;;;5074480;28;20421;-49
2021/07/23 04:57:12;;;;;;;2.78;1.90;;;29.70;43.00;;;;;;5090380;28;20051;-46
2021/07/23 04:59:40;;;;;;;1.65;1.38;;;29.70;43.10;;;;;;5076344;28;20098;-48
2021/07/23 05:02:07;;;;;;;1.58;1.48;;;29.70;43.10;;;;;;5079025;28;20041;-47
2021/07/23 05:04:36;;;;;;;2.85;1.27;;;29.70;43.10;;;;;;5089986;28;20040;-49
2021/07/23 05:07:05;;;;;;;1.73;1.65;;;29.70;43.10;;;;;;5086762;28;20058;-47
2021/07/23 05:09:32;;;;;;;1.60;1.30;;;29.70;43.10;;;;;;5075500;28;20418;-54
2021/07/23 05:12:01;;;;;;;1.60;1.52;;;29.70;43.10;;;;;;5073414;28;20052;-48
2021/07/23 05:14:31;;;;;;;1.55;1.55;;;29.70;43.10;;;;;;5090971;28;20074;-50
2021/07/23 05:16:58;;;;;;;1.65;1.30;;;29.70;43.10;;;;;;5080700;28;20477;-48
2021/07/23 05:19:25;;;;;;;1.17;1.17;;;29.70;43.20;;;;;;5082511;28;20143;-49
2021/07/23 05:21:52;;;;;;;1.80;1.70;;;29.70;43.20;;;;;;5089869;28;20143;-51
2021/07/23 05:24:21;;;;;;;1.48;1.38;;;29.70;43.20;;;;;;5072081;28;21620;-49
2021/07/23 05:26:48;;;;;;;1.33;1.23;;;29.70;43.20;;;;;;5089469;28;20777;-49
2021/07/23 05:29:15;;;;;;;0.80;0.80;;;29.70;43.20;;;;;;5089520;28;20056;-49
2021/07/23 05:31:42;;;;;;;0.88;0.88;;;29.70;43.20;;;;;;5083041;28;20110;-51
2021/07/23 05:34:09;;;;;;;1.42;1.42;;;29.60;43.20;;;;;;5080718;28;20044;-50
2021/07/23 05:36:36;;;;;;;1.50;1.50;;;29.60;43.20;;;;;;5089117;28;20048;-51
2021/07/23 05:39:03;;;;;;;1.83;1.73;;;29.60;43.30;;;;;;5073506;28;20130;-49
2021/07/23 05:41:32;;;;;;;2.25;1.30;;;29.60;43.20;;;;;;5074173;28;20047;-50
2021/07/23 05:43:59;;;;;;;1.80;1.70;;;29.60;43.30;;;;;;5086551;28;20103;-49
2021/07/23 05:46:27;;;;;;;3.92;1.45;;;29.60;43.30;;;;;;5089743;28;20032;-51
2021/07/23 05:48:54;;;;;;;1.67;1.55;;;29.60;43.30;;;;;;5089030;28;20052;-50
2021/07/23 05:51:21;;;;;;;1.80;1.70;;;29.60;43.30;;;;;;5089485;28;20085;-50
2021/07/23 05:53:48;;;;;;;1.83;1.33;;;29.60;43.30;;;;;;5085852;28;20440;-49
2021/07/23 05:56:15;;;;;;;1.67;1.60;;;29.60;43.30;;;;;;5089227;28;20048;-47
2021/07/23 05:58:43;;;;;;;1.98;1.80;;;29.60;43.30;;;;;;5087249;28;20040;-50
2021/07/23 06:01:11;;;;;;;1.17;1.17;;;29.60;43.30;;;;;;5086377;28;20043;-47
2021/07/23 06:03:39;;;;;;;1.33;1.23;;;29.60;43.40;;;;;;5078264;28;20122;-51
2021/07/23 06:06:07;;;;;;;1.73;1.63;;;29.60;43.40;;;;;;5088231;28;20066;-47
2021/07/23 06:08:34;;;;;;;1.83;1.73;;;29.60;43.40;;;;;;5075394;28;20127;-50
2021/07/23 06:11:05;;;;;;;1.20;1.20;;;29.60;43.40;;;;;;5076608;28;20052;-49
2021/07/23 06:13:46;;;;;;;1.75;1.60;;;29.60;43.40;;;;;;5067896;28;20052;-50
2021/07/23 06:16:14;;;;;;;1.40;1.30;;;29.60;43.40;;;;;;5094492;28;20044;-49
2021/07/23 06:18:41;;;;;;;1.30;1.27;;;29.60;44.00;;;;;;5088693;28;20044;-48
2021/07/23 06:21:08;;;;;;;1.35;1.35;;;29.60;43.40;;;;;;5053291;28;20470;-45
2021/07/23 06:23:35;;;;;;;1.55;1.45;;;29.60;43.40;;;;;;5089136;28;20556;-50
2021/07/23 06:26:03;;;;;;;1.38;1.38;;;29.60;43.40;;;;;;5087912;28;20363;-46
2021/07/23 06:28:30;;;;;;;2.95;1.88;;;29.60;43.40;;;;;;5083054;28;20128;-48
2021/07/23 06:31:03;;;;;;;2.33;1.17;;;29.60;43.40;;;;;;5077149;28;20139;-46
2021/07/23 06:33:30;;;;;;;1.58;1.50;;;29.60;43.40;;;;;;5088173;28;20496;-46
2021/07/23 06:35:58;;;;;;;1.55;1.45;;;29.60;44.00;;;;;;5072122;28;20525;-49
2021/07/23 06:38:25;;;;;;;2.05;1.38;;;29.60;43.50;;;;;;5088916;28;20067;-48
2021/07/23 06:40:53;;;;;;;1.33;1.30;;;29.60;43.40;;;;;;5087725;28;20063;-50
2021/07/23 06:43:20;;;;;;;1.77;1.50;;;29.60;43.40;;;;;;5087239;28;20560;-46
2021/07/23 06:45:52;;;;;;;1.98;1.88;;;29.60;43.40;;;;;;5088126;28;20048;-48
2021/07/23 06:48:20;;;;;;;2.05;1.77;;;29.60;43.40;;;;;;5087085;28;20066;-50
2021/07/23 06:50:49;;;;;;;1.70;1.60;;;29.60;43.40;;;;;;5083438;28;20044;-52
2021/07/23 06:53:16;;;;;;;1.38;1.25;;;29.60;43.40;;;;;;5087175;28;20048;-48
2021/07/23 06:55:43;;;;;;;3.25;2.15;;;29.60;43.40;;;;;;5080245;28;20044;-51
2021/07/23 06:58:11;;;;;;;2.90;2.65;;;29.60;43.40;;;;;;5063620;28;20462;-49
2021/07/23 07:00:38;;;;;;;2.17;2.08;;;29.60;43.40;;;;;;5067232;28;20155;-52
2021/07/23 07:03:07;;;;;;;1.88;1.80;;;29.60;43.50;;;;;;5065722;28;20411;-49
2021/07/23 07:05:35;;;;;;;1.90;1.63;;;29.60;43.40;;;;;;5066316;28;20499;-50
2021/07/23 07:08:03;;;;;;;2.38;2.25;;;29.60;43.50;;;;;;5066526;28;20106;-52
2021/07/23 07:10:30;;;;;;;2.25;1.77;;;29.60;43.40;;;;;;5067002;28;20048;-46
2021/07/23 07:12:57;;;;;;;2.78;2.58;;;29.60;43.40;;;;;;5067180;28;20044;-51
2021/07/23 07:15:24;;;;;;;2.25;2.15;;;29.60;43.40;;;;;;5067322;28;20052;-47
2021/07/23 07:17:57;;;;;;;5.43;2.30;;;29.60;43.40;;;;;;5065302;28;20217;-51
2021/07/23 07:20:25;;;;;;;1.95;1.75;;;29.60;43.40;;;;;;5064640;28;20048;-52
2021/07/23 07:22:54;;;;;;;2.17;2.08;;;29.70;43.50;;;;;;5067156;28;20068;-47
2021/07/23 07:25:22;;;;;;;4.55;3.15;;;29.60;43.40;;;;;;5067128;28;20036;-46
2021/07/23 07:27:50;;;;;;;2.15;2.00;;;29.70;43.50;;;;;;5067579;28;20448;-52
2021/07/23 07:30:17;;;;;;;2.15;2.03;;;29.60;43.40;;;;;;5067083;28;20135;-48
2021/07/23 07:32:44;;;;;;;2.63;2.45;;;29.60;43.40;;;;;;5067790;28;20089;-47
2021/07/23 07:35:12;;;;;;;3.35;2.28;;;29.70;43.50;;;;;;5066435;28;20139;-50
2021/07/23 07:37:39;;;;;;;1.92;1.80;;;29.70;43.40;;;;;;5066590;28;20047;-49
2021/07/23 07:40:09;;;;;;;6.65;2.92;;;29.70;43.40;;;;;;5066800;28;20051;-50
2021/07/23 07:42:36;;;;;;;2.03;1.90;;;29.70;43.40;;;;;;5063600;28;20068;-51
2021/07/23 07:45:05;;;;;;;2.28;1.55;;;29.60;43.40;;;;;;5066784;28;20087;-50
2021/07/23 07:47:32;;;;;;;2.30;2.13;;;29.70;43.40;;;;;;5067830;28;20130;-50
2021/07/23 07:49:59;;;;;;;2.35;1.85;;;29.70;43.40;;;;;;5066092;28;20544;-51
2021/07/23 07:52:26;;;;;;;2.53;2.17;;;29.70;43.40;;;;;;5065758;28;20136;-50
2021/07/23 07:54:54;;;;;;;2.53;2.22;;;29.70;43.40;;;;;;5066490;28;20045;-51
2021/07/23 07:57:23;;;;;;;2.95;1.75;;;29.60;43.30;;;;;;5050642;28;20484;-51
2021/07/23 07:59:50;;;;;;;3.17;2.15;;;29.70;43.40;;;;;;5068432;28;20135;-50
2021/07/23 08:02:17;;;;;;;2.47;2.38;;;29.70;43.50;;;;;;5070691;28;20049;-50
2021/07/23 08:04:44;;;;;;;3.45;2.72;;;29.70;43.40;;;;;;5070003;28;20121;-50
2021/07/23 08:07:18;;;;;;;2.38;2.17;;;29.70;43.40;;;;;;5070930;28;20650;-53
2021/07/23 08:09:50;;;;;;;2.85;2.35;;;29.70;43.40;;;;;;5070909;28;20054;-53
2021/07/23 08:12:17;;;;;;;2.60;1.70;;;29.70;43.40;;;;;;5070452;28;20033;-53
2021/07/23 08:14:46;;;;;;;5.00;2.55;;;29.70;43.40;;;;;;5071791;28;20044;-49
2021/07/23 08:17:13;;;;;;;4.28;3.33;;;29.70;43.40;;;;;;5070570;28;20056;-49
2021/07/23 08:19:40;;;;;;;3.05;2.80;;;29.70;43.40;;;;;;5070261;28;20044;-50
2021/07/23 08:22:08;;;;;;;3.30;2.50;;;29.70;43.40;;;;;;5070109;28;20127;-47
2021/07/23 08:24:35;;;;;;;2.45;2.15;;;29.70;43.40;;;;;;5070087;28;20037;-49
2021/07/23 08:27:03;;;;;;;4.18;2.58;;;29.70;43.30;;;;;;5070524;28;20080;-48
2021/07/23 08:29:30;;;;;;;2.55;2.35;;;29.70;43.30;;;;;;5070716;28;20508;-49
2021/07/23 08:32:07;;;;;;;5.38;2.75;;;29.70;43.30;;;;;;5069457;28;20597;-47
2021/07/23 08:34:34;;;;;;;3.85;3.17;;;29.80;43.40;;;;;;5069804;28;20045;-48
2021/07/23 08:37:01;;;;;;;6.70;2.88;;;29.70;43.30;;;;;;5067938;28;20041;-46
2021/07/23 08:39:28;;;;;;;2.08;1.80;;;29.70;43.30;;;;;;5069572;28;20044;-49
2021/07/23 08:41:56;;;;;;;4.18;2.75;;;29.80;43.40;;;;;;5070265;28;20047;-50
2021/07/23 08:44:25;;;;;;;3.40;2.58;;;29.70;43.30;;;;;;5069773;28;20041;-49
2021/07/23 08:46:52;;;;;;;7.00;3.70;;;29.70;43.30;;;;;;5069785;28;20037;-46
2021/07/23 08:49:21;;;;;;;2.83;2.63;;;29.80;43.30;;;;;;5069609;28;20053;-48
2021/07/23 08:51:51;;;;;;;5.50;3.05;;;29.80;43.30;;;;;;5069944;28;20044;-51
2021/07/23 08:54:18;;;;;;;2.63;2.50;;;29.80;43.30;;;;;;5069799;28;20048;-47
2021/07/23 08:56:46;;;;;;;2.58;2.28;;;29.80;43.30;;;;;;5070632;28;20050;-51
2021/07/23 08:59:14;;;;;;;2.97;2.83;;;29.80;43.30;;;;;;5068057;28;21274;-47
2021/07/23 09:01:58;;;;;;;2.67;2.50;;;29.80;43.30;;;;;;5069367;28;20040;-49
2021/07/23 09:04:29;;;;;;;3.92;3.35;;;29.80;43.20;;;;;;5069289;28;20046;-46
2021/07/23 09:07:30;;;;;;;2.45;2.25;;;29.80;43.20;;;;;;5069499;28;20037;-45
2021/07/23 09:10:05;;;;;;;3.35;3.08;;;29.80;43.20;;;;;;5069248;28;20052;-45
2021/07/23 09:12:46;;;;;;;2.95;2.63;;;29.80;43.30;;;;;;5068901;28;20152;-47
2021/07/23 09:15:17;;;;;;;3.22;2.67;;;29.80;43.30;;;;;;5068438;28;20131;-51
2021/07/23 09:17:45;;;;;;;4.47;2.85;;;29.80;43.30;;;;;;5070156;28;20041;-46
2021/07/23 09:20:15;;;;;;;2.38;2.25;;;29.80;43.20;;;;;;5069234;28;20052;-48
2021/07/23 09:22:46;;;;;;;3.15;2.92;;;29.90;43.30;;;;;;5069470;28;20040;-45
2021/07/23 09:25:14;;;;;;;2.22;2.05;;;29.80;43.20;;;;;;5068932;28;20072;-48
2021/07/23 09:27:42;;;;;;;3.42;3.22;;;29.80;43.20;;;;;;5066889;28;20128;-50
2021/07/23 09:30:12;;;;;;;3.00;2.08;;;29.90;43.30;;;;;;5068961;28;20047;-47
2021/07/23 09:32:40;;;;;;;5.35;2.58;;;29.90;43.30;;;;;;5070601;28;20064;-51
2021/07/23 09:35:12;;;;;;;3.00;2.80;;;29.90;43.20;;;;;;5068898;28;20036;-46
2021/07/23 09:37:59;;;;;;;2.83;2.60;;;29.90;43.20;;;;;;5069314;28;20040;-46
2021/07/23 09:40:39;;;;;;;2.70;2.50;;;29.90;43.10;;;;;;5068898;28;20366;-49
2021/07/23 09:43:06;;;;;;;2.83;2.58;;;29.90;43.20;;;;;;5068818;28;20045;-49
2021/07/23 09:45:34;;;;;;;2.78;2.33;;;29.90;43.20;;;;;;5068584;28;20147;-48
2021/07/23 09:48:12;;;;;;;4.72;3.28;;;29.90;43.10;;;;;;5068676;28;20068;-47
2021/07/23 09:50:43;;;;;;;3.67;3.35;;;30.00;43.10;;;;;;5068920;28;20044;-48
2021/07/23 09:53:12;;;;;;;2.95;2.55;;;30.00;43.10;;;;;;5068509;28;20521;-51
2021/07/23 09:55:40;;;;;;;4.07;3.63;;;30.00;43.10;;;;;;5068463;28;20033;-46
2021/07/23 09:58:08;;;;;;;3.78;3.47;;;30.00;43.10;;;;;;5068352;28;20062;-48
2021/07/23 10:00:39;;;;;;;3.65;3.30;;;30.00;43.00;;;;;;5068471;28;20055;-51
2021/07/23 10:03:08;;;;;;;6.05;2.58;;;30.00;43.00;;;;;;5068378;28;20071;-51
2021/07/23 10:05:44;;;;;;;3.63;3.33;;;30.00;43.00;;;;;;5069591;28;20149;-51
2021/07/23 10:08:21;;;;;;;4.95;2.88;;;30.00;43.00;;;;;;5068092;28;20504;-53
2021/07/23 10:10:50;;;;;;;2.35;2.25;;;30.00;43.00;;;;;;5067935;28;20041;-51
2021/07/23 10:13:20;;;;;;;3.50;3.03;;;30.10;43.00;;;;;;5083371;28;20058;-51
2021/07/23 10:15:48;;;;;;;2.83;2.63;;;30.00;42.90;;;;;;5061468;28;20127;-50
2021/07/23 10:18:17;;;;;;;3.53;2.05;;;30.10;43.00;;;;;;5067808;28;20110;-51
2021/07/23 10:20:46;;;;;;;3.50;3.20;;;30.10;42.90;;;;;;5068889;28;20049;-50
2021/07/23 10:23:18;;;;;;;2.88;2.67;;;30.10;42.90;;;;;;5066695;28;20053;-52
2021/07/23 10:25:47;;;;;;;3.38;3.17;;;30.10;42.90;;;;;;5067838;28;20053;-54
2021/07/23 10:28:57;;;;;;;4.78;3.63;;;30.10;42.80;;;;;;5067673;28;20180;-53
2021/07/23 10:31:44;;;;;;;3.10;2.90;;;30.10;42.70;;;;;;5062887;28;20430;-46
2021/07/23 10:34:12;;;;;;;2.90;2.75;;;30.10;42.70;;;;;;5059292;28;20048;-46
2021/07/23 10:36:41;;;;;;;2.80;2.63;;;30.10;42.80;;;;;;5068255;28;20075;-48
2021/07/23 10:39:13;;;;;;;3.22;3.03;;;30.10;42.70;;;;;;5068141;28;20041;-51
2021/07/23 10:41:43;;;;;;;2.88;2.75;;;30.10;42.70;;;;;;5069108;28;20085;-48
2021/07/23 10:44:52;;;;;;;2.70;2.50;;;30.20;42.70;;;;;;5067352;28;20052;-46
2021/07/23 10:47:38;;;;;;;3.47;3.25;;;30.20;42.70;;;;;;5068475;28;20075;-48
2021/07/23 10:50:07;;;;;;;4.90;3.70;;;30.20;42.70;;;;;;5067608;28;20036;-46
2021/07/23 10:52:37;;;;;;;3.15;2.95;;;30.20;42.80;;;;;;5067463;28;20044;-50
2021/07/23 10:55:22;;;;;;;3.03;2.80;;;30.20;42.70;;;;;;5068070;28;20066;-49
2021/07/23 10:58:41;;;;;;;4.28;3.22;;;30.20;42.70;;;;;;5068302;28;20501;-47
2021/07/23 11:01:08;;;;;;;4.68;3.30;;;30.30;42.70;;;;;;5058956;28;20042;-46
2021/07/23 11:04:01;;;;;;;3.45;3.15;;;30.20;42.70;;;;;;5067739;28;20059;-51
2021/07/23 11:06:33;;;;;;;3.75;3.38;;;30.30;42.70;;;;;;5053302;28;20049;-48
2021/07/23 11:09:04;;;;;;;3.40;3.10;;;30.30;42.80;;;;;;5068399;28;20040;-49
2021/07/23 11:11:32;;;;;;;3.13;2.92;;;30.30;42.80;;;;;;5066461;28;20056;-51
2021/07/23 11:14:15;;;;;;;2.72;2.63;;;30.30;42.80;;;;;;5067436;28;20049;-45
2021/07/23 11:16:42;;;;;;;2.78;2.58;;;30.30;42.70;;;;;;5067305;28;20106;-48
2021/07/23 11:19:22;;;;;;;4.47;3.58;;;30.30;42.70;;;;;;5067408;28;20067;-48
2021/07/23 11:21:49;;;;;;;4.95;3.05;;;30.40;42.80;;;;;;5083291;28;20040;-49
2021/07/23 11:24:17;;;;;;;3.55;2.80;;;30.30;42.70;;;;;;5061374;28;20036;-48
2021/07/23 11:26:52;;;;;;;5.03;2.15;;;30.30;42.60;;;;;;5067948;28;20049;-50
2021/07/23 11:29:35;;;;;;;;;;;30.40;42.70;;;;;;5067046;28;20642;-59
2021/07/23 11:32:08;;;;;;;2.42;2.25;;;30.40;42.70;;;;;;5067983;28;20316;-64
2021/07/23 11:34:38;;;;;;;4.70;3.70;;;30.30;43.20;;;;;;5059220;28;20051;-60
2021/07/23 11:37:17;;;;;;;3.97;2.80;;;30.40;43.50;;;;;;5063079;28;20514;-60
2021/07/23 11:39:54;;;;;;;3.55;3.35;;;30.40;43.50;;;;;;5067856;28;20036;-60
2021/07/23 11:42:22;;;;;;;3.85;3.22;;;30.40;43.40;;;;;;5060956;28;20040;-60
2021/07/23 11:44:53;;;;;;;2.78;2.58;;;30.40;43.40;;;;;;5069485;28;20047;-56
2021/07/23 11:47:27;;;;;;;10.80;3.47;;;30.50;43.50;;;;;;5067070;28;20406;-61
2021/07/23 11:49:57;;;;;;;5.65;3.88;;;30.50;43.80;;;;;;5067336;28;20399;-60
2021/07/23 11:52:25;;;;;;;9.10;3.83;;;30.50;43.90;;;;;;5060833;28;20387;-61
2021/07/23 11:54:59;;;;;;;5.32;4.00;;;30.60;43.70;;;;;;5061030;28;20480;-62
2021/07/23 11:57:27;;;;;;;6.63;3.80;;;30.60;43.60;;;;;;5063830;28;20075;-64
2021/07/23 11:59:55;;;;;;;4.53;2.90;;;30.60;43.50;;;;;;5062638;28;20052;-66
2021/07/23 12:02:26;;;;;;;3.70;3.08;;;30.60;43.20;;;;;;5063839;28;20579;-65
2021/07/23 12:05:06;;;;;;;4.68;2.97;;;30.70;43.10;;;;;;5062065;28;20445;-67
2021/07/23 12:07:33;;;;;;;3.58;3.38;;;30.80;42.90;;;;;;5059574;28;20037;-61
2021/07/23 12:10:02;;;;;;;2.85;2.65;;;30.80;42.80;;;;;;5055890;28;20056;-62
2021/07/23 12:12:31;;;;;;;6.70;3.13;;;30.80;42.70;;;;;;5059101;28;20052;-62
2021/07/23 12:15:06;;;;;;;4.00;3.47;;;30.90;42.60;;;;;;5051880;28;20045;-62
2021/07/23 12:17:35;;;;;;;10.07;3.83;;;30.90;42.50;;;;;;5063084;28;20107;-66
2021/07/23 12:20:06;;;;;;;6.00;2.85;;;30.90;42.30;;;;;;5064711;28;20549;-65
2021/07/23 12:22:34;;;;;;;5.50;2.72;;;31.00;42.20;;;;;;5063191;28;20500;-64
2021/07/23 12:25:14;;;;;;;3.55;2.88;;;31.00;42.10;;;;;;5053515;28;20100;-67
2021/07/23 12:27:41;;;;;;;4.30;3.15;;;31.00;41.90;;;;;;5052995;28;20483;-63
2021/07/23 12:30:10;;;;;;;3.58;3.28;;;31.00;41.90;;;;;;5062383;28;20068;-62
2021/07/23 12:32:37;;;;;;;4.38;3.33;;;31.10;41.80;;;;;;5054876;28;20099;-62
2021/07/23 12:35:07;;;;;;;4.97;3.13;;;31.10;41.60;;;;;;5065158;28;20048;-64
2021/07/23 12:37:34;;;;;;;6.35;3.03;;;31.20;41.60;;;;;;5056251;28;20460;-62
2021/07/23 12:40:02;;;;;;;3.85;3.45;;;31.20;41.50;;;;;;5057770;28;20057;-65
2021/07/23 12:42:31;;;;;;;8.13;4.40;;;31.30;41.50;;;;;;5058817;28;20410;-65
2021/07/23 12:44:58;;;;;;;6.07;3.40;;;31.30;41.50;;;;;;5063439;28;20041;-60
2021/07/23 12:47:26;;;;;;;10.40;3.50;;;31.30;41.30;;;;;;5068081;28;20114;-59
2021/07/23 12:49:55;;;;;;;3.88;3.58;;;31.40;41.30;;;;;;5065494;28;20048;-57
2021/07/23 12:52:25;;;;;;;4.75;3.50;;;31.40;41.10;;;;;;5062945;28;20040;-58
2021/07/23 12:54:53;;;;;;;3.28;2.97;;;31.40;41.00;;;;;;5069948;28;20538;-58
2021/07/23 12:57:22;;;;;;;5.18;2.88;;;31.40;41.50;;;;;;5072068;28;20044;-57
2021/07/23 12:59:50;;;;;;;4.22;3.60;;;31.50;40.90;;;;;;5054450;28;20131;-56
2021/07/23 13:02:18;;;;;;;5.40;3.60;;;31.60;40.80;;;;;;5070111;28;20529;-58
2021/07/23 13:04:46;;;;;;;4.40;3.80;;;31.60;40.60;;;;;;5069302;28;20124;-58